createdAt,value
2019-05-28T00:01:03.902Z,14.81
2019-05-28T00:06:10.510Z,14.78
2019-05-28T00:11:17.109Z,14.78
2019-05-28T00:16:23.667Z,14.81
2019-05-28T00:21:30.159Z,14.71
2019-05-28T00:26:36.723Z,14.71
2019-05-28T00:31:43.217Z,14.59
2019-05-28T00:36:49.846Z,14.45
2019-05-28T00:41:56.495Z,14.41
2019-05-28T00:47:03.136Z,14.38
2019-05-28T00:52:09.827Z,14.27
2019-05-28T00:57:17.820Z,14.21
2019-05-28T01:02:25.442Z,14.16
2019-05-28T01:07:31.897Z,14.14
2019-05-28T01:12:38.714Z,14.11
2019-05-28T01:17:45.199Z,14.07
2019-05-28T01:22:51.844Z,14.06
2019-05-28T01:27:58.485Z,14.04
2019-05-28T01:33:05.216Z,14.01
2019-05-28T01:38:11.723Z,13.96
2019-05-28T01:43:18.300Z,13.92
2019-05-28T01:48:25.091Z,13.85
2019-05-28T01:53:31.676Z,13.77
2019-05-28T01:58:38.266Z,13.73
2019-05-28T02:03:44.863Z,13.70
2019-05-28T02:08:51.462Z,13.72
2019-05-28T02:13:58.034Z,13.74
2019-05-28T02:19:04.673Z,13.75
2019-05-28T02:24:11.090Z,13.74
2019-05-28T02:29:17.782Z,13.73
2019-05-28T02:34:24.381Z,13.75
2019-05-28T02:39:31.081Z,13.67
2019-05-28T02:44:37.713Z,13.57
2019-05-28T02:49:44.117Z,13.44
2019-05-28T02:54:51.690Z,13.37
2019-05-28T03:00:02.106Z,13.34
2019-05-28T03:05:08.930Z,13.25
2019-05-28T03:10:18.506Z,13.29
2019-05-28T03:15:27.031Z,13.27
2019-05-28T03:20:36.179Z,13.35
2019-05-28T03:25:43.784Z,13.40
2019-05-28T03:30:50.393Z,13.45
2019-05-28T03:36:01.307Z,13.51
2019-05-28T03:41:08.840Z,13.42
2019-05-28T03:46:15.746Z,13.49
2019-05-28T03:51:22.346Z,13.37
2019-05-28T03:56:28.882Z,13.26
2019-05-28T04:01:35.510Z,13.23
2019-05-28T04:06:42.175Z,13.35
2019-05-28T04:11:49.185Z,13.42
2019-05-28T04:16:55.763Z,13.38
2019-05-28T04:22:02.375Z,13.49
2019-05-28T04:27:08.890Z,13.55
2019-05-28T04:32:15.539Z,13.55
2019-05-28T04:37:22.127Z,13.61
2019-05-28T04:42:28.643Z,13.56
2019-05-28T04:47:35.284Z,13.64
2019-05-28T04:52:42.040Z,13.64
2019-05-28T04:57:48.529Z,13.75
2019-05-28T05:03:00.284Z,13.78
2019-05-28T05:08:03.406Z,13.79
2019-05-28T05:13:10.073Z,13.79
2019-05-28T05:18:16.797Z,13.78
2019-05-28T05:23:23.300Z,13.63
2019-05-28T05:28:30.678Z,13.75
2019-05-28T05:33:37.179Z,13.71
2019-05-28T05:38:43.666Z,13.70
2019-05-28T05:43:50.275Z,13.65
2019-05-28T05:48:57.164Z,13.63
2019-05-28T05:54:03.875Z,13.69
2019-05-28T05:59:10.443Z,13.71
2019-05-28T06:04:16.913Z,13.80
2019-05-28T06:09:23.451Z,13.58
2019-05-28T06:14:30.012Z,13.35
2019-05-28T06:19:36.701Z,13.37
2019-05-28T06:24:43.323Z,13.43
2019-05-28T06:29:49.934Z,13.47
2019-05-28T06:34:56.556Z,13.34
2019-05-28T06:40:03.150Z,13.50
2019-05-28T06:45:12.050Z,13.56
2019-05-28T06:50:18.978Z,13.73
2019-05-28T06:55:25.557Z,13.69
2019-05-28T07:00:32.153Z,13.72
2019-05-28T07:05:38.811Z,13.84
2019-05-28T07:10:57.270Z,13.87
2019-05-28T07:15:53.734Z,13.89
2019-05-28T07:21:00.302Z,13.79
2019-05-28T07:26:06.869Z,13.92
2019-05-28T07:31:13.619Z,13.90
2019-05-28T07:36:20.132Z,13.91
2019-05-28T07:41:26.611Z,14.01
2019-05-28T07:46:33.229Z,14.02
2019-05-28T07:51:40.794Z,13.95
2019-05-28T07:56:47.325Z,14.01
2019-05-28T08:01:54.326Z,13.89
2019-05-28T08:07:00.961Z,14.00
2019-05-28T08:12:07.608Z,14.13
2019-05-28T08:17:14.436Z,14.25
2019-05-28T08:22:21.286Z,14.22
2019-05-28T08:27:27.858Z,14.14
2019-05-28T08:32:36.646Z,14.28
2019-05-28T08:37:43.335Z,14.32
2019-05-28T08:42:50.076Z,14.41
2019-05-28T08:47:56.543Z,14.44
2019-05-28T08:53:03.561Z,14.60
2019-05-28T08:58:10.355Z,14.67
2019-05-28T09:03:17.174Z,14.81
2019-05-28T09:08:37.766Z,14.76
2019-05-28T09:13:32.148Z,14.69
2019-05-28T09:18:38.737Z,14.86
2019-05-28T09:23:45.254Z,14.91
2019-05-28T09:28:51.831Z,14.93
2019-05-28T09:33:58.457Z,15.01
2019-05-28T09:39:07.545Z,15.05
2019-05-28T09:44:14.143Z,15.19
2019-05-28T09:49:20.656Z,15.23
2019-05-28T09:54:27.213Z,15.19
2019-05-28T09:59:41.449Z,15.17
2019-05-28T10:04:49.128Z,15.14
2019-05-28T10:09:50.489Z,15.21
2019-05-28T10:14:57.342Z,15.23
2019-05-28T10:20:04.085Z,15.31
2019-05-28T10:25:11.802Z,15.42
2019-05-28T10:30:19.089Z,15.54
2019-05-28T10:35:26.203Z,15.30
2019-05-28T10:40:32.965Z,15.38
2019-05-28T10:45:39.672Z,15.48
2019-05-28T10:50:46.413Z,16.01
2019-05-28T10:55:55.759Z,16.70
2019-05-28T11:01:02.415Z,16.64
2019-05-28T11:06:09.199Z,16.79
2019-05-28T11:11:15.883Z,17.04
2019-05-28T11:16:23.598Z,16.88
2019-05-28T11:21:30.162Z,17.12
2019-05-28T11:26:36.837Z,17.35
2019-05-28T11:31:43.516Z,17.24
2019-05-28T11:36:50.112Z,17.43
2019-05-28T11:41:56.760Z,17.46
2019-05-28T11:47:03.304Z,17.26
2019-05-28T11:52:09.873Z,17.48
2019-05-28T11:57:16.520Z,17.67
2019-05-28T12:02:23.158Z,17.98
2019-05-28T12:07:29.822Z,17.48
2019-05-28T12:12:38.985Z,18.34
2019-05-28T12:17:45.870Z,18.41
2019-05-28T12:23:09.553Z,18.62
2019-05-28T12:28:01.298Z,18.56
2019-05-28T12:33:08.200Z,18.63
2019-05-28T12:38:14.753Z,18.62
2019-05-28T12:43:21.263Z,18.70
2019-05-28T12:48:27.888Z,18.33
2019-05-28T12:53:49.172Z,18.72
2019-05-28T12:58:43.677Z,18.54
2019-05-28T13:03:52.020Z,18.39
2019-05-28T13:08:59.010Z,18.31
2019-05-28T13:14:05.698Z,18.27
2019-05-28T13:19:12.432Z,18.20
2019-05-28T13:24:19.083Z,18.14
2019-05-28T13:29:25.659Z,18.46
2019-05-28T13:34:32.341Z,18.58
2019-05-28T13:39:38.857Z,18.16
2019-05-28T13:44:45.582Z,18.20
2019-05-28T13:49:52.212Z,18.29
2019-05-28T13:54:58.792Z,18.09
2019-05-28T14:00:08.107Z,18.10
2019-05-28T14:05:17.047Z,18.01
2019-05-28T14:10:24.078Z,18.15
2019-05-28T14:15:30.711Z,18.13
2019-05-28T14:20:37.366Z,18.06
2019-05-28T14:25:44.937Z,17.83
2019-05-28T14:30:59.938Z,17.61
2019-05-28T14:35:59.975Z,17.50
2019-05-28T14:41:06.815Z,17.25
2019-05-28T14:46:13.641Z,17.24
2019-05-28T14:51:20.232Z,17.00
2019-05-28T14:56:26.814Z,16.76
2019-05-28T15:01:33.411Z,16.69
2019-05-28T15:06:40.078Z,16.41
2019-05-28T15:11:46.779Z,16.43
2019-05-28T15:16:53.273Z,16.37
2019-05-28T15:21:59.862Z,16.22
2019-05-28T15:27:06.590Z,16.20
2019-05-28T15:32:13.160Z,16.23
2019-05-28T15:37:19.934Z,16.20
2019-05-28T15:42:26.657Z,16.06
2019-05-28T15:47:33.231Z,16.14
2019-05-28T15:52:39.866Z,16.00
2019-05-28T15:57:46.364Z,15.95
2019-05-28T16:02:53.170Z,15.84
2019-05-28T16:07:59.836Z,15.99
2019-05-28T16:13:06.582Z,15.95
2019-05-28T16:18:13.212Z,16.08
2019-05-28T16:23:19.629Z,16.25
2019-05-28T16:28:27.174Z,16.38
2019-05-28T16:33:34.780Z,16.44
2019-05-28T16:38:41.381Z,16.48
2019-05-28T16:43:48.049Z,16.37
2019-05-28T16:48:54.711Z,16.34
2019-05-28T16:54:18.226Z,16.19
2019-05-28T16:59:10.641Z,16.09
2019-05-28T17:04:18.288Z,16.25
2019-05-28T17:09:24.882Z,16.15
2019-05-28T17:14:31.594Z,16.24
2019-05-28T17:19:38.103Z,16.05
2019-05-28T17:24:46.067Z,15.95
2019-05-28T17:29:52.678Z,15.87
2019-05-28T17:34:59.208Z,15.69
2019-05-28T17:40:06.309Z,15.52
2019-05-28T17:45:15.022Z,15.35
2019-05-28T17:50:22.930Z,15.25
2019-05-28T17:55:29.537Z,15.15
2019-05-28T18:00:36.397Z,15.18
2019-05-28T18:05:42.919Z,15.29
2019-05-28T18:11:03.342Z,15.25
2019-05-28T18:15:57.703Z,15.24
2019-05-28T18:21:04.381Z,15.17
2019-05-28T18:26:11.062Z,14.74
2019-05-28T18:31:17.748Z,14.46
2019-05-28T18:36:24.705Z,14.15
2019-05-28T18:41:32.265Z,13.93
2019-05-28T18:46:38.921Z,13.69
2019-05-28T18:51:45.434Z,13.38
2019-05-28T18:56:51.988Z,13.47
2019-05-28T19:01:59.777Z,13.32
2019-05-28T19:07:07.770Z,13.31
2019-05-28T19:12:14.350Z,13.35
2019-05-28T19:17:21.075Z,13.26
2019-05-28T19:22:27.791Z,13.15
2019-05-28T19:27:35.510Z,13.14
2019-05-28T19:32:42.585Z,13.08
2019-05-28T19:37:49.449Z,13.04
2019-05-28T19:42:55.847Z,13.02
2019-05-28T19:48:02.539Z,12.82
2019-05-28T19:53:09.214Z,12.84
2019-05-28T19:58:15.895Z,12.64
2019-05-28T20:03:22.601Z,12.62
2019-05-28T20:08:29.246Z,12.56
2019-05-28T20:13:35.942Z,12.52
2019-05-28T20:18:42.504Z,12.44
2019-05-28T20:23:50.159Z,12.33
2019-05-28T20:29:07.804Z,12.14
2019-05-28T20:34:05.332Z,12.07
2019-05-28T20:39:12.166Z,12.18
2019-05-28T20:44:18.790Z,12.09
2019-05-28T20:49:25.171Z,11.93
2019-05-28T20:54:31.636Z,11.77
2019-05-28T20:59:38.160Z,11.75
2019-05-28T21:04:44.688Z,11.76
2019-05-28T21:09:52.177Z,11.58
2019-05-28T21:14:58.854Z,11.72
2019-05-28T21:20:06.500Z,11.70
2019-05-28T21:25:13.322Z,11.76
2019-05-28T21:30:30.289Z,11.64
2019-05-28T21:35:36.901Z,11.65
2019-05-28T21:40:43.485Z,11.60
2019-05-28T21:45:50.134Z,11.72
2019-05-28T21:50:56.765Z,11.66
2019-05-28T21:56:04.533Z,11.59
2019-05-28T22:01:18.860Z,11.55
2019-05-28T22:06:25.505Z,11.52
2019-05-28T22:11:32.211Z,11.53
2019-05-28T22:16:38.759Z,11.58
2019-05-28T22:21:45.317Z,11.62
2019-05-28T22:26:51.955Z,11.64
2019-05-28T22:31:58.771Z,11.73
2019-05-28T22:37:08.605Z,11.59
2019-05-28T22:42:15.240Z,11.54
2019-05-28T22:47:21.789Z,11.57
2019-05-28T22:52:28.247Z,11.73
2019-05-28T22:57:34.818Z,11.82
2019-05-28T23:02:41.211Z,11.80
2019-05-28T23:07:47.725Z,11.84
2019-05-28T23:12:54.282Z,11.91
2019-05-28T23:18:00.828Z,11.97
2019-05-28T23:23:07.420Z,11.94
2019-05-28T23:28:13.865Z,12.03
2019-05-28T23:33:20.354Z,12.07
2019-05-28T23:38:26.907Z,12.03
2019-05-28T23:43:33.456Z,12.06
2019-05-28T23:48:40.000Z,12.05
2019-05-28T23:53:46.639Z,11.98
2019-05-28T23:58:53.192Z,12.01
